メインページ
METAR-TAF:

METAR-TAF

空港 :

Aoba Island, バヌアツ

緯度: 15-18-24S, 経度: 167-58-02E, 海抜: 51m

現時点の気象観測

当レポートは4時間24分前の18:00(UTC)に作成
の風 4kt
気温 26°C
湿度 79%
気圧 1011 hPa

METAR: NVSG 111800Z AUTO 00004KT //// // NCD 26/22 Q1011 RMK NIL

時間: 09:24 (22:24 UTC)

予報

当レポートは6時間24分前の16:00(UTC)に作成
予報は11日の 12時(UTC)から 12日の 12時(UTC)まで有効
変向風 2kt
視程10km以上
高度2000ftの雲は散在している
確率 30%
間 INからTE UTC
視程: 9000m
高度1800ftの千切れ雲あり
弱いにわか雨

TAF: NVSG 111600Z 1112/1212 VRB02KT 9999 SCT020 PROB30 INTER 1118/1124 9000 -SHRA BKN018

4,000以上の空港の気象観測と天気予報(METAR報とTAF報)

利用可能な観測所は地図上に黄色い丸と赤い丸で示す。

丸の上にカーソルを重ねると観測所名を参照できる。

次にクリックすると気象観測と天気予報を参照できる。

マップの切り替え:黒色「×」印の緑ボタンをクリックして拡大、「-」印の緑ボタンをクリックして縮小、緑色の三角印をクリックして隣りの地図に切り替え


METAR-TAF: